sensor_id;sensor_type;location;lat;lon;timestamp;temperature;humidity
12634;DHT22;6382;48.614;8.880;2023-07-20T00:02:10;17.10;99.90
12634;DHT22;6382;48.614;8.880;2023-07-20T00:04:37;17.20;99.90
12634;DHT22;6382;48.614;8.880;2023-07-20T00:07:04;17.20;99.90
12634;DHT22;6382;48.614;8.880;2023-07-20T00:09:31;17.30;99.90
12634;DHT22;6382;48.614;8.880;2023-07-20T00:11:58;18.30;99.90
12634;DHT22;6382;48.614;8.880;2023-07-20T00:14:27;18.10;99.90
12634;DHT22;6382;48.614;8.880;2023-07-20T00:16:54;16.90;99.90
12634;DHT22;6382;48.614;8.880;2023-07-20T00:19:25;17.10;99.90
12634;DHT22;6382;48.614;8.880;2023-07-20T00:21:52;16.60;99.90
12634;DHT22;6382;48.614;8.880;2023-07-20T00:24:19;16.20;99.90
12634;DHT22;6382;48.614;8.880;2023-07-20T00:26:46;16.10;99.90
12634;DHT22;6382;48.614;8.880;2023-07-20T00:29:13;16.40;99.90
12634;DHT22;6382;48.614;8.880;2023-07-20T00:31:40;17.30;99.90
12634;DHT22;6382;48.614;8.880;2023-07-20T00:34:07;16.20;99.90
12634;DHT22;6382;48.614;8.880;2023-07-20T00:36:33;16.40;99.90
12634;DHT22;6382;48.614;8.880;2023-07-20T00:39:00;16.30;99.90
12634;DHT22;6382;48.614;8.880;2023-07-20T00:41:27;17.20;99.90
12634;DHT22;6382;48.614;8.880;2023-07-20T00:43:56;17.50;99.90
12634;DHT22;6382;48.614;8.880;2023-07-20T00:46:23;17.60;99.90
12634;DHT22;6382;48.614;8.880;2023-07-20T00:48:52;16.50;99.90
12634;DHT22;6382;48.614;8.880;2023-07-20T00:51:20;16.20;99.90
12634;DHT22;6382;48.614;8.880;2023-07-20T00:53:47;16.10;99.90
12634;DHT22;6382;48.614;8.880;2023-07-20T00:56:14;16.40;99.90
12634;DHT22;6382;48.614;8.880;2023-07-20T00:58:41;17.40;99.90
12634;DHT22;6382;48.614;8.880;2023-07-20T01:01:08;16.90;99.90
12634;DHT22;6382;48.614;8.880;2023-07-20T01:03:35;16.50;99.90
12634;DHT22;6382;48.614;8.880;2023-07-20T01:08:33;16.80;99.90
12634;DHT22;6382;48.614;8.880;2023-07-20T01:13:59;15.70;99.90
12634;DHT22;6382;48.614;8.880;2023-07-20T01:16:26;15.80;99.90
12634;DHT22;6382;48.614;8.880;2023-07-20T01:18:53;15.80;99.90
12634;DHT22;6382;48.614;8.880;2023-07-20T01:21:25;15.60;99.90
12634;DHT22;6382;48.614;8.880;2023-07-20T01:31:38;15.00;99.90
12634;DHT22;6382;48.614;8.880;2023-07-20T01:34:06;15.20;99.90
12634;DHT22;6382;48.614;8.880;2023-07-20T01:36:35;15.20;99.90
12634;DHT22;6382;48.614;8.880;2023-07-20T01:39:02;16.60;99.90
12634;DHT22;6382;48.614;8.880;2023-07-20T01:41:31;16.10;99.90
12634;DHT22;6382;48.614;8.880;2023-07-20T01:43:58;16.30;99.90
12634;DHT22;6382;48.614;8.880;2023-07-20T01:46:25;15.50;99.90
12634;DHT22;6382;48.614;8.880;2023-07-20T01:48:53;16.30;99.90
12634;DHT22;6382;48.614;8.880;2023-07-20T01:51:20;15.40;99.90
12634;DHT22;6382;48.614;8.880;2023-07-20T01:53:47;15.20;99.90
12634;DHT22;6382;48.614;8.880;2023-07-20T01:56:14;16.70;99.90
12634;DHT22;6382;48.614;8.880;2023-07-20T01:58:41;15.30;99.90
12634;DHT22;6382;48.614;8.880;2023-07-20T02:01:08;15.70;99.90
12634;DHT22;6382;48.614;8.880;2023-07-20T02:03:35;16.40;99.90
12634;DHT22;6382;48.614;8.880;2023-07-20T02:06:02;15.90;99.90
12634;DHT22;6382;48.614;8.880;2023-07-20T02:08:29;14.50;99.90
12634;DHT22;6382;48.614;8.880;2023-07-20T02:10:55;16.50;99.90
12634;DHT22;6382;48.614;8.880;2023-07-20T02:13:22;14.50;99.90
12634;DHT22;6382;48.614;8.880;2023-07-20T02:15:49;14.20;99.90
12634;DHT22;6382;48.614;8.880;2023-07-20T02:18:17;16.00;99.90
12634;DHT22;6382;48.614;8.880;2023-07-20T02:20:44;15.40;99.90
12634;DHT22;6382;48.614;8.880;2023-07-20T02:23:11;15.40;99.90
12634;DHT22;6382;48.614;8.880;2023-07-20T02:25:38;15.90;99.90
12634;DHT22;6382;48.614;8.880;2023-07-20T02:28:07;15.40;99.90
12634;DHT22;6382;48.614;8.880;2023-07-20T02:30:37;14.00;99.90
12634;DHT22;6382;48.614;8.880;2023-07-20T02:33:04;16.10;99.90
12634;DHT22;6382;48.614;8.880;2023-07-20T02:35:32;15.40;99.90
12634;DHT22;6382;48.614;8.880;2023-07-20T02:37:59;14.30;99.90
12634;DHT22;6382;48.614;8.880;2023-07-20T02:40:26;15.40;99.90
12634;DHT22;6382;48.614;8.880;2023-07-20T02:42:53;15.20;99.90
12634;DHT22;6382;48.614;8.880;2023-07-20T02:45:20;14.50;99.90
12634;DHT22;6382;48.614;8.880;2023-07-20T02:47:46;15.10;99.90
12634;DHT22;6382;48.614;8.880;2023-07-20T02:50:14;15.60;99.90
12634;DHT22;6382;48.614;8.880;2023-07-20T02:52:41;16.30;99.90
12634;DHT22;6382;48.614;8.880;2023-07-20T02:55:07;16.00;99.90
12634;DHT22;6382;48.614;8.880;2023-07-20T02:57:34;14.50;99.90
12634;DHT22;6382;48.614;8.880;2023-07-20T03:00:02;15.50;99.90
12634;DHT22;6382;48.614;8.880;2023-07-20T03:02:30;14.60;99.90
12634;DHT22;6382;48.614;8.880;2023-07-20T03:04:57;14.50;99.90
12634;DHT22;6382;48.614;8.880;2023-07-20T03:07:27;14.50;99.90
12634;DHT22;6382;48.614;8.880;2023-07-20T03:09:55;14.40;99.90
12634;DHT22;6382;48.614;8.880;2023-07-20T03:12:21;14.50;99.90
12634;DHT22;6382;48.614;8.880;2023-07-20T03:14:48;14.60;99.90
12634;DHT22;6382;48.614;8.880;2023-07-20T03:17:15;15.50;99.90
12634;DHT22;6382;48.614;8.880;2023-07-20T03:19:42;15.50;99.90
12634;DHT22;6382;48.614;8.880;2023-07-20T03:22:09;15.60;99.90
12634;DHT22;6382;48.614;8.880;2023-07-20T03:24:36;14.80;99.90
12634;DHT22;6382;48.614;8.880;2023-07-20T03:27:03;15.30;99.90
12634;DHT22;6382;48.614;8.880;2023-07-20T03:29:31;14.70;99.90
12634;DHT22;6382;48.614;8.880;2023-07-20T03:31:58;15.10;99.90
12634;DHT22;6382;48.614;8.880;2023-07-20T03:34:26;14.50;99.90
12634;DHT22;6382;48.614;8.880;2023-07-20T03:36:52;15.80;99.90
12634;DHT22;6382;48.614;8.880;2023-07-20T03:39:19;14.40;99.90
12634;DHT22;6382;48.614;8.880;2023-07-20T03:41:46;15.60;99.90
12634;DHT22;6382;48.614;8.880;2023-07-20T03:44:12;14.50;99.90
12634;DHT22;6382;48.614;8.880;2023-07-20T03:46:39;15.20;99.90
12634;DHT22;6382;48.614;8.880;2023-07-20T03:49:06;16.40;99.90
12634;DHT22;6382;48.614;8.880;2023-07-20T03:51:33;14.60;99.90
12634;DHT22;6382;48.614;8.880;2023-07-20T03:54:00;14.80;99.90
12634;DHT22;6382;48.614;8.880;2023-07-20T03:56:27;16.20;99.90
12634;DHT22;6382;48.614;8.880;2023-07-20T03:58:54;14.90;99.90
12634;DHT22;6382;48.614;8.880;2023-07-20T04:01:20;14.80;99.90
12634;DHT22;6382;48.614;8.880;2023-07-20T04:03:47;16.10;99.90
12634;DHT22;6382;48.614;8.880;2023-07-20T04:06:15;14.40;99.90
12634;DHT22;6382;48.614;8.880;2023-07-20T04:08:44;14.60;99.90
12634;DHT22;6382;48.614;8.880;2023-07-20T04:11:11;14.60;99.90
12634;DHT22;6382;48.614;8.880;2023-07-20T04:13:37;16.10;99.90
12634;DHT22;6382;48.614;8.880;2023-07-20T04:16:04;16.30;99.90
12634;DHT22;6382;48.614;8.880;2023-07-20T04:18:31;15.60;99.90
12634;DHT22;6382;48.614;8.880;2023-07-20T04:20:58;17.30;99.90
12634;DHT22;6382;48.614;8.880;2023-07-20T04:23:25;18.70;99.90
12634;DHT22;6382;48.614;8.880;2023-07-20T04:25:52;16.40;99.90
12634;DHT22;6382;48.614;8.880;2023-07-20T04:28:19;16.90;99.90
12634;DHT22;6382;48.614;8.880;2023-07-20T04:30:49;17.60;99.90
12634;DHT22;6382;48.614;8.880;2023-07-20T04:33:17;17.30;99.90
12634;DHT22;6382;48.614;8.880;2023-07-20T04:38:11;16.10;99.90
12634;DHT22;6382;48.614;8.880;2023-07-20T04:40:38;16.80;99.90
12634;DHT22;6382;48.614;8.880;2023-07-20T04:43:05;15.80;99.90
12634;DHT22;6382;48.614;8.880;2023-07-20T04:45:32;16.80;99.90
12634;DHT22;6382;48.614;8.880;2023-07-20T04:47:59;16.70;99.90
12634;DHT22;6382;48.614;8.880;2023-07-20T04:50:26;16.00;99.90
12634;DHT22;6382;48.614;8.880;2023-07-20T04:52:53;17.00;99.90
12634;DHT22;6382;48.614;8.880;2023-07-20T04:55:20;17.50;99.90
12634;DHT22;6382;48.614;8.880;2023-07-20T04:57:46;17.00;99.90
12634;DHT22;6382;48.614;8.880;2023-07-20T05:00:13;16.60;99.90
12634;DHT22;6382;48.614;8.880;2023-07-20T05:02:40;16.30;99.90
12634;DHT22;6382;48.614;8.880;2023-07-20T05:05:07;17.10;99.90
12634;DHT22;6382;48.614;8.880;2023-07-20T05:07:34;16.30;99.90
12634;DHT22;6382;48.614;8.880;2023-07-20T05:10:01;18.50;99.90
12634;DHT22;6382;48.614;8.880;2023-07-20T05:12:27;17.70;99.90
12634;DHT22;6382;48.614;8.880;2023-07-20T05:14:54;16.60;99.90
12634;DHT22;6382;48.614;8.880;2023-07-20T05:17:21;16.90;99.90
12634;DHT22;6382;48.614;8.880;2023-07-20T05:19:48;17.90;99.90
12634;DHT22;6382;48.614;8.880;2023-07-20T05:22:15;17.30;99.90
12634;DHT22;6382;48.614;8.880;2023-07-20T05:24:41;17.50;99.90
12634;DHT22;6382;48.614;8.880;2023-07-20T05:27:08;17.60;99.90
12634;DHT22;6382;48.614;8.880;2023-07-20T05:29:35;19.30;99.90
12634;DHT22;6382;48.614;8.880;2023-07-20T05:32:02;19.90;99.90
12634;DHT22;6382;48.614;8.880;2023-07-20T05:34:29;18.00;99.90
12634;DHT22;6382;48.614;8.880;2023-07-20T05:36:56;18.60;99.90
12634;DHT22;6382;48.614;8.880;2023-07-20T05:39:23;18.40;99.90
12634;DHT22;6382;48.614;8.880;2023-07-20T05:41:49;19.60;99.90
12634;DHT22;6382;48.614;8.880;2023-07-20T05:44:16;18.60;99.90
12634;DHT22;6382;48.614;8.880;2023-07-20T05:46:44;19.30;99.90
12634;DHT22;6382;48.614;8.880;2023-07-20T05:49:23;18.90;99.90
12634;DHT22;6382;48.614;8.880;2023-07-20T05:51:50;19.10;99.90
12634;DHT22;6382;48.614;8.880;2023-07-20T05:54:17;19.20;99.90
12634;DHT22;6382;48.614;8.880;2023-07-20T05:56:45;19.20;99.90
12634;DHT22;6382;48.614;8.880;2023-07-20T05:59:11;19.30;99.90
12634;DHT22;6382;48.614;8.880;2023-07-20T06:01:38;19.30;99.90
12634;DHT22;6382;48.614;8.880;2023-07-20T06:04:05;20.30;99.90
12634;DHT22;6382;48.614;8.880;2023-07-20T06:06:32;19.40;99.90
12634;DHT22;6382;48.614;8.880;2023-07-20T06:08:59;19.50;99.90
12634;DHT22;6382;48.614;8.880;2023-07-20T06:11:30;19.90;99.90
12634;DHT22;6382;48.614;8.880;2023-07-20T06:13:57;20.50;99.90
12634;DHT22;6382;48.614;8.880;2023-07-20T06:16:24;20.10;99.90
12634;DHT22;6382;48.614;8.880;2023-07-20T06:18:51;19.40;99.90
12634;DHT22;6382;48.614;8.880;2023-07-20T06:21:18;20.80;99.90
12634;DHT22;6382;48.614;8.880;2023-07-20T06:23:45;20.00;99.90
12634;DHT22;6382;48.614;8.880;2023-07-20T06:26:12;20.40;99.90
12634;DHT22;6382;48.614;8.880;2023-07-20T06:28:39;19.20;99.90
12634;DHT22;6382;48.614;8.880;2023-07-20T06:31:06;19.50;99.90
12634;DHT22;6382;48.614;8.880;2023-07-20T06:33:33;19.20;99.90
12634;DHT22;6382;48.614;8.880;2023-07-20T06:36:01;19.80;99.90
12634;DHT22;6382;48.614;8.880;2023-07-20T06:38:28;19.40;99.90
12634;DHT22;6382;48.614;8.880;2023-07-20T06:40:58;19.60;99.90
12634;DHT22;6382;48.614;8.880;2023-07-20T06:43:46;19.60;99.90
12634;DHT22;6382;48.614;8.880;2023-07-20T06:46:15;20.20;99.90
12634;DHT22;6382;48.614;8.880;2023-07-20T06:48:42;19.70;99.90
12634;DHT22;6382;48.614;8.880;2023-07-20T06:51:11;20.50;99.90
12634;DHT22;6382;48.614;8.880;2023-07-20T06:53:38;20.00;99.90
12634;DHT22;6382;48.614;8.880;2023-07-20T06:56:05;20.00;99.90
12634;DHT22;6382;48.614;8.880;2023-07-20T06:58:32;20.20;99.90
12634;DHT22;6382;48.614;8.880;2023-07-20T07:00:59;21.90;99.90
12634;DHT22;6382;48.614;8.880;2023-07-20T07:03:30;20.50;99.90
12634;DHT22;6382;48.614;8.880;2023-07-20T07:05:59;22.20;99.90
12634;DHT22;6382;48.614;8.880;2023-07-20T07:08:26;20.60;99.90
12634;DHT22;6382;48.614;8.880;2023-07-20T07:10:53;21.10;99.90
12634;DHT22;6382;48.614;8.880;2023-07-20T07:13:19;20.70;99.90
12634;DHT22;6382;48.614;8.880;2023-07-20T07:15:46;22.10;99.90
12634;DHT22;6382;48.614;8.880;2023-07-20T07:18:13;20.50;99.90
12634;DHT22;6382;48.614;8.880;2023-07-20T07:20:40;20.40;99.90
12634;DHT22;6382;48.614;8.880;2023-07-20T07:23:07;21.20;99.90
12634;DHT22;6382;48.614;8.880;2023-07-20T07:25:34;20.30;99.90
12634;DHT22;6382;48.614;8.880;2023-07-20T07:28:01;20.90;99.90
12634;DHT22;6382;48.614;8.880;2023-07-20T07:30:28;21.90;99.90
12634;DHT22;6382;48.614;8.880;2023-07-20T07:32:56;20.30;99.90
12634;DHT22;6382;48.614;8.880;2023-07-20T07:35:23;20.30;99.90
12634;DHT22;6382;48.614;8.880;2023-07-20T07:37:50;20.30;99.90
12634;DHT22;6382;48.614;8.880;2023-07-20T07:40:35;21.60;99.90
12634;DHT22;6382;48.614;8.880;2023-07-20T07:43:01;20.30;99.90
12634;DHT22;6382;48.614;8.880;2023-07-20T07:45:29;20.70;99.90
12634;DHT22;6382;48.614;8.880;2023-07-20T07:47:55;21.50;99.90
12634;DHT22;6382;48.614;8.880;2023-07-20T07:50:22;22.00;99.90
12634;DHT22;6382;48.614;8.880;2023-07-20T07:52:49;20.20;99.90
12634;DHT22;6382;48.614;8.880;2023-07-20T07:55:16;20.30;99.90
12634;DHT22;6382;48.614;8.880;2023-07-20T07:57:44;21.20;99.90
12634;DHT22;6382;48.614;8.880;2023-07-20T08:00:11;21.80;99.90
12634;DHT22;6382;48.614;8.880;2023-07-20T08:02:41;20.30;99.90
12634;DHT22;6382;48.614;8.880;2023-07-20T08:05:09;20.30;99.90
12634;DHT22;6382;48.614;8.880;2023-07-20T08:07:36;20.90;99.90
12634;DHT22;6382;48.614;8.880;2023-07-20T08:10:03;20.60;99.90
12634;DHT22;6382;48.614;8.880;2023-07-20T08:12:31;20.50;99.90
12634;DHT22;6382;48.614;8.880;2023-07-20T08:14:57;21.60;99.90
12634;DHT22;6382;48.614;8.880;2023-07-20T08:17:24;21.50;99.90
12634;DHT22;6382;48.614;8.880;2023-07-20T08:19:51;22.10;99.90
12634;DHT22;6382;48.614;8.880;2023-07-20T08:22:18;21.20;99.90
12634;DHT22;6382;48.614;8.880;2023-07-20T08:24:44;21.20;99.90
12634;DHT22;6382;48.614;8.880;2023-07-20T08:27:11;21.20;99.70
12634;DHT22;6382;48.614;8.880;2023-07-20T08:29:38;21.90;99.80
12634;DHT22;6382;48.614;8.880;2023-07-20T08:32:06;21.70;99.90
12634;DHT22;6382;48.614;8.880;2023-07-20T08:34:33;21.30;99.40
12634;DHT22;6382;48.614;8.880;2023-07-20T08:36:59;23.70;99.90
12634;DHT22;6382;48.614;8.880;2023-07-20T08:39:26;21.20;99.90
12634;DHT22;6382;48.614;8.880;2023-07-20T08:41:53;22.80;99.90
12634;DHT22;6382;48.614;8.880;2023-07-20T08:44:21;22.10;99.90
12634;DHT22;6382;48.614;8.880;2023-07-20T08:46:49;20.80;99.20
12634;DHT22;6382;48.614;8.880;2023-07-20T08:49:16;20.80;99.60
12634;DHT22;6382;48.614;8.880;2023-07-20T08:51:45;21.50;99.90
12634;DHT22;6382;48.614;8.880;2023-07-20T08:54:13;20.90;99.90
12634;DHT22;6382;48.614;8.880;2023-07-20T08:56:40;21.50;99.90
12634;DHT22;6382;48.614;8.880;2023-07-20T08:59:08;22.90;99.90
12634;DHT22;6382;48.614;8.880;2023-07-20T09:01:34;21.60;99.80
12634;DHT22;6382;48.614;8.880;2023-07-20T09:04:02;23.00;97.80
12634;DHT22;6382;48.614;8.880;2023-07-20T09:06:29;21.40;98.00
12634;DHT22;6382;48.614;8.880;2023-07-20T09:08:57;21.40;98.50
12634;DHT22;6382;48.614;8.880;2023-07-20T09:11:24;23.30;99.40
12634;DHT22;6382;48.614;8.880;2023-07-20T09:14:07;23.70;95.50
12634;DHT22;6382;48.614;8.880;2023-07-20T09:16:47;22.30;94.20
12634;DHT22;6382;48.614;8.880;2023-07-20T09:19:15;22.20;95.10
12634;DHT22;6382;48.614;8.880;2023-07-20T09:21:49;21.90;95.60
12634;DHT22;6382;48.614;8.880;2023-07-20T09:24:17;21.70;96.30
12634;DHT22;6382;48.614;8.880;2023-07-20T09:26:44;21.40;95.80
12634;DHT22;6382;48.614;8.880;2023-07-20T09:29:14;21.20;96.50
12634;DHT22;6382;48.614;8.880;2023-07-20T09:31:42;21.00;96.10
12634;DHT22;6382;48.614;8.880;2023-07-20T09:34:09;22.60;96.40
12634;DHT22;6382;48.614;8.880;2023-07-20T09:36:37;22.50;96.20
12634;DHT22;6382;48.614;8.880;2023-07-20T09:39:07;21.00;95.70
12634;DHT22;6382;48.614;8.880;2023-07-20T09:41:40;21.30;94.80
12634;DHT22;6382;48.614;8.880;2023-07-20T09:44:15;21.10;94.30
12634;DHT22;6382;48.614;8.880;2023-07-20T09:46:46;23.30;95.20
12634;DHT22;6382;48.614;8.880;2023-07-20T09:49:19;21.20;94.20
12634;DHT22;6382;48.614;8.880;2023-07-20T09:51:49;21.70;95.10
12634;DHT22;6382;48.614;8.880;2023-07-20T09:54:17;21.80;94.30
12634;DHT22;6382;48.614;8.880;2023-07-20T09:56:44;22.80;92.90
12634;DHT22;6382;48.614;8.880;2023-07-20T09:59:12;23.50;93.30
12634;DHT22;6382;48.614;8.880;2023-07-20T10:01:39;22.90;92.80
12634;DHT22;6382;48.614;8.880;2023-07-20T10:04:08;21.80;93.40
12634;DHT22;6382;48.614;8.880;2023-07-20T10:06:36;21.80;91.60
12634;DHT22;6382;48.614;8.880;2023-07-20T10:09:06;21.90;92.40
12634;DHT22;6382;48.614;8.880;2023-07-20T10:11:35;22.30;92.40
12634;DHT22;6382;48.614;8.880;2023-07-20T10:14:03;22.40;93.50
12634;DHT22;6382;48.614;8.880;2023-07-20T10:16:34;22.60;93.60
12634;DHT22;6382;48.614;8.880;2023-07-20T10:19:07;22.50;92.20
12634;DHT22;6382;48.614;8.880;2023-07-20T10:21:42;22.20;92.00
12634;DHT22;6382;48.614;8.880;2023-07-20T10:24:09;21.90;92.20
12634;DHT22;6382;48.614;8.880;2023-07-20T10:26:38;21.90;91.10
12634;DHT22;6382;48.614;8.880;2023-07-20T10:29:07;23.50;91.20
12634;DHT22;6382;48.614;8.880;2023-07-20T10:31:34;22.40;90.90
12634;DHT22;6382;48.614;8.880;2023-07-20T10:34:02;22.40;90.60
12634;DHT22;6382;48.614;8.880;2023-07-20T10:36:29;22.40;90.80
12634;DHT22;6382;48.614;8.880;2023-07-20T10:38:57;22.20;90.90
12634;DHT22;6382;48.614;8.880;2023-07-20T10:41:35;22.00;92.30
12634;DHT22;6382;48.614;8.880;2023-07-20T10:44:02;22.00;92.30
12634;DHT22;6382;48.614;8.880;2023-07-20T10:46:34;22.00;91.80
12634;DHT22;6382;48.614;8.880;2023-07-20T10:49:02;21.90;91.80
12634;DHT22;6382;48.614;8.880;2023-07-20T10:51:55;21.90;91.60
12634;DHT22;6382;48.614;8.880;2023-07-20T10:56:48;24.10;91.40
12634;DHT22;6382;48.614;8.880;2023-07-20T11:01:55;22.50;90.10
12634;DHT22;6382;48.614;8.880;2023-07-20T11:04:39;22.50;90.30
12634;DHT22;6382;48.614;8.880;2023-07-20T11:07:06;22.70;88.70
12634;DHT22;6382;48.614;8.880;2023-07-20T11:09:34;22.80;86.90
12634;DHT22;6382;48.614;8.880;2023-07-20T11:12:11;23.70;89.80
12634;DHT22;6382;48.614;8.880;2023-07-20T11:14:44;23.00;87.20
12634;DHT22;6382;48.614;8.880;2023-07-20T11:17:19;23.00;88.60
12634;DHT22;6382;48.614;8.880;2023-07-20T11:19:49;23.10;87.00
12634;DHT22;6382;48.614;8.880;2023-07-20T11:22:19;23.10;90.00
12634;DHT22;6382;48.614;8.880;2023-07-20T11:24:47;23.40;87.60
12634;DHT22;6382;48.614;8.880;2023-07-20T11:27:15;23.30;86.70
12634;DHT22;6382;48.614;8.880;2023-07-20T11:29:42;23.50;88.70
12634;DHT22;6382;48.614;8.880;2023-07-20T11:32:12;23.70;87.60
12634;DHT22;6382;48.614;8.880;2023-07-20T11:34:42;24.00;87.20
12634;DHT22;6382;48.614;8.880;2023-07-20T11:37:13;24.30;90.00
12634;DHT22;6382;48.614;8.880;2023-07-20T11:39:40;24.50;87.80
12634;DHT22;6382;48.614;8.880;2023-07-20T11:42:06;24.50;83.30
12634;DHT22;6382;48.614;8.880;2023-07-20T11:44:33;24.30;80.80
12634;DHT22;6382;48.614;8.880;2023-07-20T11:47:04;23.70;84.50
12634;DHT22;6382;48.614;8.880;2023-07-20T11:49:35;23.30;86.80
12634;DHT22;6382;48.614;8.880;2023-07-20T11:52:04;23.30;88.70
12634;DHT22;6382;48.614;8.880;2023-07-20T11:54:31;23.30;88.00
12634;DHT22;6382;48.614;8.880;2023-07-20T11:57:00;23.20;86.00
12634;DHT22;6382;48.614;8.880;2023-07-20T11:59:27;23.30;89.70
12634;DHT22;6382;48.614;8.880;2023-07-20T12:01:53;23.50;86.90
12634;DHT22;6382;48.614;8.880;2023-07-20T12:04:22;23.80;85.20
12634;DHT22;6382;48.614;8.880;2023-07-20T12:06:49;24.00;87.10
12634;DHT22;6382;48.614;8.880;2023-07-20T12:09:16;24.20;83.30
12634;DHT22;6382;48.614;8.880;2023-07-20T12:11:44;24.40;81.30
12634;DHT22;6382;48.614;8.880;2023-07-20T12:14:11;24.00;82.20
12634;DHT22;6382;48.614;8.880;2023-07-20T12:16:54;23.80;82.80
12634;DHT22;6382;48.614;8.880;2023-07-20T12:19:24;23.50;82.30
12634;DHT22;6382;48.614;8.880;2023-07-20T12:21:56;23.30;81.50
12634;DHT22;6382;48.614;8.880;2023-07-20T12:24:23;23.40;78.70
12634;DHT22;6382;48.614;8.880;2023-07-20T12:26:55;23.30;78.90
12634;DHT22;6382;48.614;8.880;2023-07-20T12:29:22;22.90;79.30
12634;DHT22;6382;48.614;8.880;2023-07-20T12:31:49;23.30;82.30
12634;DHT22;6382;48.614;8.880;2023-07-20T12:34:16;23.00;83.30
12634;DHT22;6382;48.614;8.880;2023-07-20T12:36:43;23.20;83.30
12634;DHT22;6382;48.614;8.880;2023-07-20T12:39:10;22.70;82.10
12634;DHT22;6382;48.614;8.880;2023-07-20T12:41:37;22.70;83.20
12634;DHT22;6382;48.614;8.880;2023-07-20T12:44:04;22.80;83.10
12634;DHT22;6382;48.614;8.880;2023-07-20T12:46:32;22.90;81.20
12634;DHT22;6382;48.614;8.880;2023-07-20T12:49:01;23.00;85.10
12634;DHT22;6382;48.614;8.880;2023-07-20T12:51:28;23.30;84.60
12634;DHT22;6382;48.614;8.880;2023-07-20T12:53:55;23.50;82.80
12634;DHT22;6382;48.614;8.880;2023-07-20T12:56:22;23.70;80.60
12634;DHT22;6382;48.614;8.880;2023-07-20T12:58:51;23.80;80.90
12634;DHT22;6382;48.614;8.880;2023-07-20T13:01:18;23.80;81.40
12634;DHT22;6382;48.614;8.880;2023-07-20T13:03:45;23.80;83.60
12634;DHT22;6382;48.614;8.880;2023-07-20T13:06:15;23.80;82.50
12634;DHT22;6382;48.614;8.880;2023-07-20T13:08:44;23.60;80.60
12634;DHT22;6382;48.614;8.880;2023-07-20T13:11:11;23.50;81.40
12634;DHT22;6382;48.614;8.880;2023-07-20T13:13:38;24.30;81.80
12634;DHT22;6382;48.614;8.880;2023-07-20T13:16:05;23.50;79.80
12634;DHT22;6382;48.614;8.880;2023-07-20T13:18:32;23.50;80.60
12634;DHT22;6382;48.614;8.880;2023-07-20T13:20:59;23.70;79.90
12634;DHT22;6382;48.614;8.880;2023-07-20T13:23:26;23.30;81.20
12634;DHT22;6382;48.614;8.880;2023-07-20T13:25:53;23.30;83.30
12634;DHT22;6382;48.614;8.880;2023-07-20T13:28:21;24.40;83.20
12634;DHT22;6382;48.614;8.880;2023-07-20T13:30:47;23.30;85.40
12634;DHT22;6382;48.614;8.880;2023-07-20T13:33:14;24.20;82.80
12634;DHT22;6382;48.614;8.880;2023-07-20T13:35:44;23.40;83.00
12634;DHT22;6382;48.614;8.880;2023-07-20T13:38:14;23.50;83.10
12634;DHT22;6382;48.614;8.880;2023-07-20T13:40:41;23.70;82.80
12634;DHT22;6382;48.614;8.880;2023-07-20T13:43:09;23.80;80.90
12634;DHT22;6382;48.614;8.880;2023-07-20T13:45:35;25.50;83.00
12634;DHT22;6382;48.614;8.880;2023-07-20T13:48:03;24.60;82.50
12634;DHT22;6382;48.614;8.880;2023-07-20T13:50:32;24.10;80.80
12634;DHT22;6382;48.614;8.880;2023-07-20T13:53:02;24.10;80.50
12634;DHT22;6382;48.614;8.880;2023-07-20T13:55:32;24.10;78.30
12634;DHT22;6382;48.614;8.880;2023-07-20T13:58:03;24.30;79.50
12634;DHT22;6382;48.614;8.880;2023-07-20T14:00:30;24.20;80.80
12634;DHT22;6382;48.614;8.880;2023-07-20T14:03:00;24.60;82.80
12634;DHT22;6382;48.614;8.880;2023-07-20T14:05:30;24.20;81.90
12634;DHT22;6382;48.614;8.880;2023-07-20T14:08:00;24.10;81.80
12634;DHT22;6382;48.614;8.880;2023-07-20T14:10:27;24.00;81.80
12634;DHT22;6382;48.614;8.880;2023-07-20T14:12:53;23.90;83.10
12634;DHT22;6382;48.614;8.880;2023-07-20T14:15:20;24.00;81.10
12634;DHT22;6382;48.614;8.880;2023-07-20T14:17:47;24.20;80.30
12634;DHT22;6382;48.614;8.880;2023-07-20T14:20:14;24.50;81.50
12634;DHT22;6382;48.614;8.880;2023-07-20T14:22:43;24.50;81.40
12634;DHT22;6382;48.614;8.880;2023-07-20T14:25:11;24.40;82.10
12634;DHT22;6382;48.614;8.880;2023-07-20T14:27:38;24.30;80.70
12634;DHT22;6382;48.614;8.880;2023-07-20T14:30:05;24.20;80.40
12634;DHT22;6382;48.614;8.880;2023-07-20T14:32:31;24.20;78.80
12634;DHT22;6382;48.614;8.880;2023-07-20T14:35:00;24.20;79.30
12634;DHT22;6382;48.614;8.880;2023-07-20T14:37:27;24.30;80.00
12634;DHT22;6382;48.614;8.880;2023-07-20T14:39:55;24.30;78.60
12634;DHT22;6382;48.614;8.880;2023-07-20T14:42:21;24.40;79.80
12634;DHT22;6382;48.614;8.880;2023-07-20T14:44:48;24.20;79.30
12634;DHT22;6382;48.614;8.880;2023-07-20T14:47:17;24.70;80.80
12634;DHT22;6382;48.614;8.880;2023-07-20T14:49:44;24.10;84.50
12634;DHT22;6382;48.614;8.880;2023-07-20T14:52:11;24.30;82.00
12634;DHT22;6382;48.614;8.880;2023-07-20T14:54:42;23.40;81.00
12634;DHT22;6382;48.614;8.880;2023-07-20T14:57:09;24.50;79.50
12634;DHT22;6382;48.614;8.880;2023-07-20T14:59:41;24.40;78.60
12634;DHT22;6382;48.614;8.880;2023-07-20T15:02:08;24.30;81.50
12634;DHT22;6382;48.614;8.880;2023-07-20T15:04:35;24.20;80.70
12634;DHT22;6382;48.614;8.880;2023-07-20T15:07:02;24.20;82.50
12634;DHT22;6382;48.614;8.880;2023-07-20T15:09:29;24.10;81.90
12634;DHT22;6382;48.614;8.880;2023-07-20T15:11:56;24.10;82.50
12634;DHT22;6382;48.614;8.880;2023-07-20T15:14:22;23.90;83.20
12634;DHT22;6382;48.614;8.880;2023-07-20T15:16:49;23.90;81.60
12634;DHT22;6382;48.614;8.880;2023-07-20T15:19:16;23.90;83.60
12634;DHT22;6382;48.614;8.880;2023-07-20T15:21:43;24.10;82.30
12634;DHT22;6382;48.614;8.880;2023-07-20T15:24:10;24.20;81.80
12634;DHT22;6382;48.614;8.880;2023-07-20T15:26:37;24.20;81.40
12634;DHT22;6382;48.614;8.880;2023-07-20T15:29:04;24.20;81.80
12634;DHT22;6382;48.614;8.880;2023-07-20T15:31:31;24.20;82.00
12634;DHT22;6382;48.614;8.880;2023-07-20T15:34:00;24.10;81.20
12634;DHT22;6382;48.614;8.880;2023-07-20T15:36:27;24.10;82.40
12634;DHT22;6382;48.614;8.880;2023-07-20T15:38:54;24.20;80.30
12634;DHT22;6382;48.614;8.880;2023-07-20T15:41:21;24.30;78.90
12634;DHT22;6382;48.614;8.880;2023-07-20T15:43:49;24.40;82.20
12634;DHT22;6382;48.614;8.880;2023-07-20T15:48:47;24.40;79.60
12634;DHT22;6382;48.614;8.880;2023-07-20T15:51:14;24.40;81.30
12634;DHT22;6382;48.614;8.880;2023-07-20T15:53:40;24.10;80.90
12634;DHT22;6382;48.614;8.880;2023-07-20T15:56:07;24.10;81.10
12634;DHT22;6382;48.614;8.880;2023-07-20T15:58:34;24.00;80.90
12634;DHT22;6382;48.614;8.880;2023-07-20T16:01:01;23.90;81.80
12634;DHT22;6382;48.614;8.880;2023-07-20T16:03:27;23.80;82.20
12634;DHT22;6382;48.614;8.880;2023-07-20T16:06:03;23.80;81.70
12634;DHT22;6382;48.614;8.880;2023-07-20T16:08:31;23.70;80.50
12634;DHT22;6382;48.614;8.880;2023-07-20T16:10:58;23.60;82.50
12634;DHT22;6382;48.614;8.880;2023-07-20T16:13:26;23.60;82.70